Time;durP1;ratioP1;P1;durP2;ratioP2;P2;SDS_P1;SDS_P2;PMS_P1;PMS_P2;Temp;Humidity;BMP_temperature;BMP_pressure;BME280_temperature;BME280_humidity;BME280_pressure;Samples;Min_cycle;Max_cycle;Signal;HPM_P1;HPM_P2
2023/10/30 00:00:16;;;;;;;6.00;1.00;;;10.60;99.90;;;;;;5053376;28;20396;-82
2023/10/30 00:03:03;;;;;;;8.13;1.80;;;10.60;99.90;;;;;;5036701;28;20140;-81
2023/10/30 00:05:49;;;;;;;6.07;1.23;;;10.50;99.90;;;;;;5054749;28;20057;-82
2023/10/30 00:08:35;;;;;;;11.25;1.42;;;10.50;99.90;;;;;;5051430;28;20400;-81
2023/10/30 00:11:21;;;;;;;12.48;1.17;;;10.50;99.90;;;;;;5053104;28;20408;-81
2023/10/30 00:14:08;;;;;;;7.07;1.20;;;10.50;99.90;;;;;;5051268;28;20059;-82
2023/10/30 00:16:55;;;;;;;6.95;1.48;;;10.50;99.90;;;;;;5052956;28;20060;-81
2023/10/30 00:19:41;;;;;;;7.15;1.50;;;10.50;99.90;;;;;;5053626;28;20064;-80
2023/10/30 00:22:27;;;;;;;8.15;2.30;;;10.60;99.90;;;;;;5053291;28;20481;-82
2023/10/30 00:25:13;;;;;;;7.82;1.52;;;10.60;99.90;;;;;;5035725;28;20067;-81
2023/10/30 00:28:00;;;;;;;9.98;1.38;;;10.70;99.90;;;;;;5053345;28;20064;-79
2023/10/30 00:30:46;;;;;;;7.70;1.27;;;10.70;99.90;;;;;;5021099;28;20115;-79
2023/10/30 00:33:32;;;;;;;9.85;1.63;;;10.70;99.90;;;;;;5053661;28;20045;-81
2023/10/30 00:36:18;;;;;;;7.60;1.50;;;10.70;99.90;;;;;;5051763;28;20064;-81
2023/10/30 00:39:04;;;;;;;16.65;2.95;;;10.70;99.90;;;;;;5052571;28;20045;-82
2023/10/30 00:41:50;;;;;;;12.25;2.08;;;10.70;99.90;;;;;;5052637;28;20057;-81
2023/10/30 00:44:39;;;;;;;7.85;1.63;;;10.70;99.90;;;;;;5052583;28;20053;-79
2023/10/30 00:47:26;;;;;;;11.60;1.30;;;10.70;99.90;;;;;;5034404;28;20056;-83
2023/10/30 00:50:12;;;;;;;7.35;1.60;;;10.70;99.90;;;;;;5025135;28;20045;-81
2023/10/30 00:52:58;;;;;;;10.05;1.58;;;10.70;99.90;;;;;;5052396;28;20096;-80
2023/10/30 00:55:48;;;;;;;4.18;1.58;;;10.70;99.90;;;;;;5052449;28;20084;-81
2023/10/30 00:58:34;;;;;;;10.07;1.40;;;10.70;99.90;;;;;;5051993;28;20588;-81
2023/10/30 01:01:23;;;;;;;6.38;1.35;;;10.70;99.90;;;;;;5052512;28;20508;-82
2023/10/30 01:04:08;;;;;;;7.93;1.98;;;10.60;99.90;;;;;;5052651;28;20056;-81
2023/10/30 01:06:55;;;;;;;6.22;0.98;;;10.70;99.90;;;;;;5052730;28;20056;-81
2023/10/30 01:09:41;;;;;;;7.32;1.42;;;10.70;99.90;;;;;;5052989;28;20531;-81
2023/10/30 01:12:27;;;;;;;6.20;1.20;;;10.60;99.90;;;;;;5052465;28;20053;-81
2023/10/30 01:15:13;;;;;;;8.95;1.35;;;10.60;99.90;;;;;;5034585;28;20136;-80
2023/10/30 01:17:59;;;;;;;8.90;1.20;;;10.60;99.90;;;;;;5052258;28;20589;-80
2023/10/30 01:20:46;;;;;;;7.40;1.10;;;10.60;99.90;;;;;;5051852;28;20132;-81
2023/10/30 01:23:32;;;;;;;9.98;1.55;;;10.60;99.90;;;;;;5052037;28;20057;-80
2023/10/30 01:26:18;;;;;;;5.47;1.05;;;10.50;99.90;;;;;;5050078;28;20053;-80
2023/10/30 01:29:05;;;;;;;8.20;1.10;;;10.50;99.90;;;;;;5051212;28;20095;-82
2023/10/30 01:31:51;;;;;;;7.00;1.73;;;10.50;99.90;;;;;;5052178;28;20095;-79
2023/10/30 01:34:37;;;;;;;8.70;1.27;;;10.50;99.90;;;;;;5051495;28;20052;-82
2023/10/30 01:37:23;;;;;;;5.47;0.90;;;10.50;99.90;;;;;;5052559;28;20087;-82
2023/10/30 01:40:10;;;;;;;8.02;0.98;;;10.50;99.90;;;;;;5052002;28;20049;-80
2023/10/30 01:42:56;;;;;;;7.28;0.80;;;10.50;99.90;;;;;;5049889;28;20106;-81
2023/10/30 01:45:42;;;;;;;6.88;1.02;;;10.50;99.90;;;;;;5051067;28;20076;-82
2023/10/30 01:48:30;;;;;;;8.90;1.13;;;10.50;99.90;;;;;;5051106;28;20099;-83
2023/10/30 01:51:17;;;;;;;6.40;0.93;;;10.50;99.90;;;;;;5051440;28;20561;-81
2023/10/30 01:54:04;;;;;;;3.20;0.52;;;10.50;99.90;;;;;;5051386;28;20496;-82
2023/10/30 01:56:50;;;;;;;5.30;0.98;;;10.50;99.90;;;;;;5051251;28;20439;-82
2023/10/30 01:59:36;;;;;;;7.00;1.15;;;10.60;99.90;;;;;;5051322;28;20048;-83
2023/10/30 02:02:23;;;;;;;5.65;1.05;;;10.50;99.90;;;;;;5033225;28;20057;-83
2023/10/30 02:05:09;;;;;;;4.38;0.82;;;10.60;99.90;;;;;;5050825;28;20057;-81
2023/10/30 02:07:56;;;;;;;4.20;0.80;;;10.50;99.90;;;;;;5051595;28;20040;-82
2023/10/30 02:10:42;;;;;;;4.47;0.93;;;10.50;99.90;;;;;;5033027;28;20095;-80
2023/10/30 02:13:28;;;;;;;3.25;0.70;;;10.40;99.90;;;;;;5050291;28;20061;-80
2023/10/30 02:16:15;;;;;;;5.72;1.10;;;10.40;99.90;;;;;;5051091;28;20562;-80
2023/10/30 02:19:02;;;;;;;5.25;1.00;;;10.40;99.90;;;;;;5050987;28;20092;-82
2023/10/30 02:21:49;;;;;;;7.95;0.85;;;10.40;99.90;;;;;;5051465;28;20049;-81
2023/10/30 02:24:35;;;;;;;8.70;1.35;;;10.30;99.90;;;;;;5051274;28;20094;-81
2023/10/30 02:27:21;;;;;;;5.28;1.33;;;10.30;99.90;;;;;;5051005;28;20508;-82
2023/10/30 02:30:11;;;;;;;6.40;1.00;;;10.30;99.90;;;;;;5034266;28;20329;-82
2023/10/30 02:32:57;;;;;;;4.18;0.82;;;10.30;99.90;;;;;;5051312;28;20413;-79
2023/10/30 02:35:43;;;;;;;7.28;0.82;;;10.20;99.90;;;;;;5051760;28;20099;-80
2023/10/30 02:38:29;;;;;;;8.75;1.33;;;10.20;99.90;;;;;;5036998;28;20060;-79
2023/10/30 02:41:15;;;;;;;4.22;0.70;;;10.20;99.90;;;;;;5050321;28;20063;-78
2023/10/30 02:44:01;;;;;;;7.75;0.85;;;10.10;99.90;;;;;;5050620;28;20486;-79
2023/10/30 02:46:47;;;;;;;4.72;0.80;;;10.10;99.90;;;;;;5047501;28;20060;-79
2023/10/30 02:49:35;;;;;;;6.80;1.10;;;10.00;99.90;;;;;;5033380;28;20187;-78
2023/10/30 02:52:21;;;;;;;7.03;1.00;;;10.00;99.90;;;;;;5050989;28;20228;-79
2023/10/30 02:55:09;;;;;;;3.47;0.70;;;10.00;99.90;;;;;;5050559;28;20056;-82
2023/10/30 02:57:55;;;;;;;3.80;0.77;;;10.00;99.90;;;;;;5050741;28;20048;-81
2023/10/30 03:00:41;;;;;;;4.13;0.68;;;10.00;99.90;;;;;;5050049;28;20049;-81
2023/10/30 03:03:28;;;;;;;9.00;0.95;;;9.90;99.90;;;;;;5049799;28;20060;-82
2023/10/30 03:06:14;;;;;;;5.82;1.40;;;9.90;99.90;;;;;;5050275;28;20067;-81
2023/10/30 03:09:00;;;;;;;4.70;0.60;;;9.80;99.90;;;;;;5032548;28;20163;-82
2023/10/30 03:11:46;;;;;;;4.20;0.70;;;9.80;99.90;;;;;;5049567;28;20151;-80
2023/10/30 03:14:32;;;;;;;5.50;0.93;;;9.70;99.90;;;;;;5032151;28;20144;-79
2023/10/30 03:17:18;;;;;;;4.53;1.05;;;9.70;99.90;;;;;;5049654;28;20164;-79
2023/10/30 03:20:08;;;;;;;4.68;1.20;;;9.70;99.90;;;;;;5031891;28;20049;-79
2023/10/30 03:22:54;;;;;;;6.25;1.05;;;9.60;99.90;;;;;;5031823;28;20139;-81
2023/10/30 03:25:40;;;;;;;4.88;1.08;;;9.60;99.90;;;;;;5043051;28;20052;-83
2023/10/30 03:28:26;;;;;;;4.22;1.38;;;9.50;99.90;;;;;;5032208;28;20409;-81
2023/10/30 03:31:12;;;;;;;4.57;1.08;;;9.50;99.90;;;;;;5053886;28;20049;-81
2023/10/30 03:33:58;;;;;;;6.47;1.95;;;9.50;99.90;;;;;;5054044;28;20129;-80
2023/10/30 03:36:44;;;;;;;8.70;1.73;;;9.50;99.90;;;;;;5053508;28;20080;-81
2023/10/30 03:39:30;;;;;;;6.30;1.70;;;9.50;99.90;;;;;;5037290;28;20134;-81
2023/10/30 03:42:16;;;;;;;6.75;2.17;;;9.50;99.90;;;;;;5054207;28;20103;-82
2023/10/30 03:45:02;;;;;;;4.97;1.75;;;9.60;99.90;;;;;;5054046;28;20040;-81
2023/10/30 03:47:48;;;;;;;9.75;2.05;;;9.70;99.90;;;;;;5052471;28;20463;-78
2023/10/30 03:50:34;;;;;;;8.60;1.70;;;9.70;99.90;;;;;;5053721;28;20047;-80
2023/10/30 03:53:20;;;;;;;8.23;2.63;;;9.70;99.90;;;;;;5053444;28;20132;-81
2023/10/30 03:56:06;;;;;;;8.75;2.65;;;9.70;99.90;;;;;;5053407;28;20053;-82
2023/10/30 03:58:52;;;;;;;8.88;2.88;;;9.60;99.90;;;;;;5054296;28;20441;-80
2023/10/30 04:01:38;;;;;;;6.60;2.40;;;9.60;99.90;;;;;;5051632;28;20583;-81
2023/10/30 04:04:24;;;;;;;8.95;2.20;;;9.60;99.90;;;;;;5053303;28;20103;-81
2023/10/30 04:07:11;;;;;;;8.50;1.88;;;9.60;99.90;;;;;;5053052;28;20517;-80
2023/10/30 04:09:57;;;;;;;8.43;2.00;;;9.60;99.90;;;;;;5052023;28;20059;-82
2023/10/30 04:12:44;;;;;;;11.43;2.00;;;9.60;99.90;;;;;;5039192;28;20408;-79
2023/10/30 04:15:30;;;;;;;12.93;2.58;;;9.60;99.90;;;;;;5035239;28;20045;-79
2023/10/30 04:18:16;;;;;;;10.70;1.85;;;9.70;99.90;;;;;;5053560;28;20049;-81
2023/10/30 04:21:03;;;;;;;10.07;1.90;;;9.80;99.90;;;;;;5052976;28;20049;-79
2023/10/30 04:23:49;;;;;;;12.35;2.40;;;9.80;99.90;;;;;;5053459;28;20057;-79
2023/10/30 04:26:35;;;;;;;11.55;2.63;;;9.80;99.90;;;;;;5037855;28;20128;-80
2023/10/30 04:29:21;;;;;;;8.90;2.20;;;9.80;99.90;;;;;;5052226;28;20049;-81
2023/10/30 04:32:08;;;;;;;11.57;2.25;;;9.80;99.90;;;;;;5052809;28;20065;-81
2023/10/30 04:34:54;;;;;;;10.75;3.45;;;9.80;99.90;;;;;;5053294;28;20056;-81
2023/10/30 04:37:40;;;;;;;7.32;2.58;;;9.80;99.90;;;;;;5050810;28;20053;-80
2023/10/30 04:40:26;;;;;;;11.63;3.30;;;9.70;99.90;;;;;;5052046;28;20053;-80
2023/10/30 04:43:12;;;;;;;16.98;2.15;;;9.70;99.90;;;;;;5052535;28;20045;-80
2023/10/30 04:45:58;;;;;;;7.50;1.88;;;9.70;99.90;;;;;;5034963;28;20061;-81
2023/10/30 04:48:44;;;;;;;8.82;1.90;;;9.70;99.90;;;;;;5052852;28;20052;-82
2023/10/30 04:51:30;;;;;;;10.23;2.30;;;9.60;99.90;;;;;;5052711;28;20052;-81
2023/10/30 04:54:16;;;;;;;11.90;2.15;;;9.60;99.90;;;;;;5034049;28;20049;-81
2023/10/30 04:57:02;;;;;;;17.80;2.25;;;9.60;99.90;;;;;;5053260;28;20153;-80
2023/10/30 04:59:48;;;;;;;9.48;1.92;;;9.60;99.90;;;;;;5052958;28;20505;-81
2023/10/30 05:02:34;;;;;;;14.00;1.83;;;9.50;99.90;;;;;;5037771;28;20497;-80
2023/10/30 05:05:20;;;;;;;18.20;3.83;;;9.50;99.90;;;;;;5050299;28;20119;-79
2023/10/30 05:08:06;;;;;;;10.85;2.22;;;9.50;99.90;;;;;;5051306;28;20049;-81
2023/10/30 05:10:52;;;;;;;16.48;2.25;;;9.50;99.90;;;;;;5052231;28;20049;-80
2023/10/30 05:13:38;;;;;;;11.15;2.35;;;9.50;99.90;;;;;;5021221;28;20155;-79
2023/10/30 05:16:24;;;;;;;10.10;2.10;;;9.50;99.90;;;;;;5033632;28;20064;-79
2023/10/30 05:19:10;;;;;;;8.73;1.90;;;9.50;99.90;;;;;;5052937;28;20436;-79
2023/10/30 05:21:56;;;;;;;12.15;2.45;;;9.50;99.90;;;;;;5051986;28;20041;-79
2023/10/30 05:24:42;;;;;;;9.38;1.80;;;9.50;99.90;;;;;;5051310;28;20176;-79
2023/10/30 05:27:28;;;;;;;11.73;1.85;;;9.50;99.90;;;;;;5052349;28;20068;-80
2023/10/30 05:30:14;;;;;;;14.55;2.38;;;9.40;99.90;;;;;;5052499;28;20056;-81
2023/10/30 05:33:01;;;;;;;15.38;2.47;;;9.50;99.90;;;;;;5051939;28;20049;-80
2023/10/30 05:35:51;;;;;;;13.10;2.95;;;9.50;99.90;;;;;;5034327;28;20147;-82
2023/10/30 05:38:37;;;;;;;9.30;2.17;;;9.50;99.90;;;;;;5033507;28;20060;-80
2023/10/30 05:41:23;;;;;;;7.95;2.38;;;9.60;99.90;;;;;;5051376;28;20109;-80
2023/10/30 05:44:09;;;;;;;8.40;2.00;;;9.50;99.90;;;;;;5051893;28;20073;-80
2023/10/30 05:46:55;;;;;;;16.30;2.92;;;9.60;99.90;;;;;;5051537;28;20045;-80
2023/10/30 05:49:42;;;;;;;18.05;2.58;;;9.60;99.90;;;;;;5037596;28;20106;-81
2023/10/30 05:52:28;;;;;;;17.00;2.75;;;9.60;99.90;;;;;;5051976;28;20136;-79
2023/10/30 05:55:14;;;;;;;10.23;2.13;;;9.50;99.90;;;;;;5051328;28;20041;-81
2023/10/30 05:58:00;;;;;;;17.77;2.35;;;9.50;99.90;;;;;;5051871;28;20111;-82
2023/10/30 06:00:47;;;;;;;10.23;2.40;;;9.50;99.90;;;;;;5033864;28;20061;-79
2023/10/30 06:03:33;;;;;;;10.40;2.35;;;9.50;99.90;;;;;;5051697;28;20049;-79
2023/10/30 06:06:20;;;;;;;6.03;2.35;;;9.50;99.90;;;;;;5033871;28;20071;-79
2023/10/30 06:09:06;;;;;;;15.45;2.10;;;9.60;99.90;;;;;;5051452;28;20105;-80
2023/10/30 06:11:53;;;;;;;13.88;2.70;;;9.50;99.90;;;;;;5033899;28;20053;-82
2023/10/30 06:14:39;;;;;;;13.38;2.72;;;9.50;99.90;;;;;;5050561;28;20053;-79
2023/10/30 06:17:25;;;;;;;9.68;1.85;;;9.50;99.90;;;;;;5037684;28;20079;-81
2023/10/30 06:20:11;;;;;;;11.05;2.40;;;9.40;99.90;;;;;;5049072;28;20053;-81
2023/10/30 06:22:57;;;;;;;17.08;2.55;;;9.40;99.90;;;;;;5052250;28;20045;-82
2023/10/30 06:25:44;;;;;;;35.67;3.45;;;9.40;99.90;;;;;;5049481;28;20474;-81
2023/10/30 06:28:30;;;;;;;16.90;2.58;;;9.40;99.90;;;;;;5032922;28;20114;-79
2023/10/30 06:31:17;;;;;;;14.05;1.95;;;9.40;99.90;;;;;;5050447;28;20052;-80
2023/10/30 06:34:03;;;;;;;17.42;2.70;;;9.40;99.90;;;;;;5036675;28;20045;-81
2023/10/30 06:36:50;;;;;;;9.90;2.00;;;9.40;99.90;;;;;;5050875;28;20400;-78
2023/10/30 06:39:37;;;;;;;9.93;2.03;;;9.30;99.90;;;;;;5050353;28;20186;-81
2023/10/30 06:42:22;;;;;;;13.05;2.13;;;9.30;99.90;;;;;;5050267;28;20114;-81
2023/10/30 06:45:09;;;;;;;13.43;2.00;;;9.30;99.90;;;;;;5032883;28;20044;-79
2023/10/30 06:47:55;;;;;;;11.57;2.35;;;9.30;99.90;;;;;;5031743;28;20396;-80
2023/10/30 06:50:41;;;;;;;12.40;2.38;;;9.30;99.90;;;;;;5050820;28;20075;-80
2023/10/30 06:53:27;;;;;;;9.18;2.25;;;9.20;99.90;;;;;;5050431;28;20535;-80
2023/10/30 06:56:13;;;;;;;13.25;2.40;;;9.20;99.90;;;;;;5050169;28;20512;-78
2023/10/30 06:58:59;;;;;;;13.00;2.08;;;9.20;99.90;;;;;;5042042;28;20056;-81
2023/10/30 07:01:47;;;;;;;11.40;2.22;;;9.30;99.90;;;;;;5050259;28;20045;-81
2023/10/30 07:04:33;;;;;;;16.67;2.13;;;9.30;99.90;;;;;;5034534;28;20072;-80
2023/10/30 07:07:19;;;;;;;23.48;3.10;;;9.30;99.90;;;;;;5032641;28;20079;-80
2023/10/30 07:10:06;;;;;;;16.30;2.53;;;9.30;99.90;;;;;;5050976;28;20052;-81
2023/10/30 07:12:52;;;;;;;19.33;3.15;;;9.30;99.90;;;;;;5050173;28;20057;-81
2023/10/30 07:15:38;;;;;;;10.93;2.63;;;9.40;99.90;;;;;;5049351;28;20505;-79
2023/10/30 07:18:24;;;;;;;16.48;3.20;;;9.40;99.90;;;;;;5048794;28;20049;-80
2023/10/30 07:21:10;;;;;;;15.23;2.33;;;9.40;99.90;;;;;;5050824;28;20118;-80
2023/10/30 07:23:57;;;;;;;12.55;2.22;;;9.50;99.90;;;;;;5032106;28;20049;-81
2023/10/30 07:26:43;;;;;;;10.32;2.80;;;9.60;99.90;;;;;;5050349;28;20481;-79
2023/10/30 07:29:29;;;;;;;14.95;2.40;;;9.60;99.90;;;;;;5049743;28;20056;-80
2023/10/30 07:32:15;;;;;;;11.95;2.63;;;9.60;99.90;;;;;;5032225;28;20497;-80
2023/10/30 07:35:01;;;;;;;16.38;2.10;;;9.60;99.90;;;;;;5048768;28;20544;-80
2023/10/30 07:37:47;;;;;;;8.93;2.22;;;9.70;99.90;;;;;;5018117;28;20135;-79
2023/10/30 07:40:33;;;;;;;18.73;3.03;;;9.80;99.90;;;;;;5032066;28;20056;-80
2023/10/30 07:43:21;;;;;;;16.45;2.55;;;9.80;99.90;;;;;;5050040;28;20481;-81
2023/10/30 07:46:07;;;;;;;14.60;2.20;;;9.90;99.90;;;;;;5050019;28;20064;-80
2023/10/30 07:48:53;;;;;;;13.70;2.28;;;9.90;99.90;;;;;;5050036;28;20062;-80
2023/10/30 07:51:39;;;;;;;14.57;2.72;;;10.10;99.90;;;;;;5048254;28;20049;-80
2023/10/30 07:54:25;;;;;;;12.40;3.75;;;10.20;99.90;;;;;;5050734;28;20049;-80
2023/10/30 07:57:11;;;;;;;12.02;2.10;;;10.30;99.90;;;;;;5049985;28;20052;-80
2023/10/30 07:59:57;;;;;;;13.68;2.38;;;10.40;99.90;;;;;;5031861;28;20398;-79
2023/10/30 08:02:46;;;;;;;16.45;4.20;;;10.40;99.90;;;;;;5031549;28;20556;-79
2023/10/30 08:05:33;;;;;;;12.90;2.53;;;10.50;99.90;;;;;;5048327;28;20048;-80
2023/10/30 08:08:19;;;;;;;11.05;2.60;;;10.60;99.90;;;;;;5031460;28;20053;-81
2023/10/30 08:11:05;;;;;;;16.90;3.67;;;10.60;99.90;;;;;;5050666;28;20071;-80
2023/10/30 08:13:51;;;;;;;12.48;2.80;;;10.70;99.90;;;;;;5032565;28;20053;-79
2023/10/30 08:16:37;;;;;;;9.63;1.70;;;10.80;99.90;;;;;;5051641;28;20045;-81
2023/10/30 08:19:23;;;;;;;20.10;2.20;;;10.80;99.90;;;;;;5036098;28;20055;-81
2023/10/30 08:22:09;;;;;;;15.52;3.63;;;10.90;99.90;;;;;;5051443;28;20053;-80
2023/10/30 08:24:55;;;;;;;14.70;2.38;;;10.90;99.90;;;;;;5034374;28;20235;-80
2023/10/30 08:27:41;;;;;;;14.52;2.92;;;11.00;99.90;;;;;;5035005;28;20056;-82
2023/10/30 08:30:28;;;;;;;15.25;2.78;;;11.10;99.90;;;;;;5034646;28;20049;-82
2023/10/30 08:33:14;;;;;;;14.30;2.88;;;11.10;99.90;;;;;;5035668;28;20107;-80
2023/10/30 08:36:00;;;;;;;12.65;2.67;;;11.10;99.90;;;;;;5052648;28;20049;-81
2023/10/30 08:38:46;;;;;;;11.00;2.38;;;11.20;99.90;;;;;;5052994;28;20064;-81
2023/10/30 08:41:33;;;;;;;14.73;2.15;;;11.30;99.90;;;;;;5053137;28;20098;-81
2023/10/30 08:44:19;;;;;;;21.98;3.85;;;11.40;99.90;;;;;;5052948;28;20080;-79
2023/10/30 08:47:05;;;;;;;9.50;2.28;;;11.40;99.90;;;;;;5052357;28;20048;-82
2023/10/30 08:49:51;;;;;;;15.68;2.47;;;11.40;99.90;;;;;;5052455;28;20075;-81
2023/10/30 08:52:37;;;;;;;9.35;2.28;;;11.50;99.90;;;;;;5034774;28;20057;-82
2023/10/30 08:55:23;;;;;;;8.07;2.25;;;11.40;99.90;;;;;;5053322;28;20155;-80
2023/10/30 08:58:10;;;;;;;10.73;2.55;;;11.50;99.90;;;;;;5052926;28;20409;-80
2023/10/30 09:00:55;;;;;;;10.32;2.17;;;11.50;99.90;;;;;;5052916;28;20045;-82
2023/10/30 09:03:42;;;;;;;16.40;3.00;;;11.60;99.90;;;;;;5050839;28;20045;-82
2023/10/30 09:06:28;;;;;;;16.90;2.78;;;11.60;99.90;;;;;;5035530;28;20643;-79
2023/10/30 09:09:14;;;;;;;16.42;2.55;;;11.60;99.90;;;;;;5053542;28;20488;-80
2023/10/30 09:12:00;;;;;;;13.52;3.13;;;11.60;99.90;;;;;;5035177;28;20049;-81
2023/10/30 09:14:46;;;;;;;9.30;2.35;;;11.70;99.90;;;;;;5050678;28;20055;-79
2023/10/30 09:17:32;;;;;;;10.07;3.22;;;11.70;99.90;;;;;;5051840;28;20045;-79
2023/10/30 09:20:19;;;;;;;15.10;2.63;;;11.80;99.90;;;;;;5051761;28;20469;-79
2023/10/30 09:23:05;;;;;;;12.48;2.65;;;11.90;99.90;;;;;;5050563;28;20063;-82
2023/10/30 09:25:51;;;;;;;13.90;2.45;;;12.00;99.90;;;;;;5051833;28;20132;-80
2023/10/30 09:28:37;;;;;;;12.15;2.83;;;12.10;99.90;;;;;;5051684;28;20088;-79
2023/10/30 09:31:23;;;;;;;13.02;2.50;;;12.20;99.90;;;;;;5051769;28;20060;-79
2023/10/30 09:34:09;;;;;;;15.40;2.72;;;12.40;99.90;;;;;;5051443;28;20144;-79
2023/10/30 09:36:55;;;;;;;10.35;2.15;;;12.50;99.90;;;;;;5051951;28;20099;-80
2023/10/30 09:39:41;;;;;;;18.65;2.60;;;12.60;99.90;;;;;;5051953;28;20049;-80
2023/10/30 09:42:27;;;;;;;13.32;2.33;;;12.70;99.90;;;;;;5051297;28;20057;-80
2023/10/30 09:45:15;;;;;;;8.93;2.20;;;12.70;99.90;;;;;;5051629;28;20048;-80
2023/10/30 09:48:02;;;;;;;13.90;2.67;;;12.70;99.90;;;;;;5051545;28;20481;-80
2023/10/30 09:50:49;;;;;;;12.88;2.42;;;12.70;99.90;;;;;;5051821;28;20134;-79
2023/10/30 09:53:37;;;;;;;14.65;3.15;;;12.70;99.90;;;;;;5051932;28;20080;-80
2023/10/30 09:56:25;;;;;;;11.85;2.45;;;12.80;99.90;;;;;;5051302;28;20110;-79
2023/10/30 09:59:13;;;;;;;12.10;2.42;;;12.80;99.90;;;;;;5049857;28;20084;-81
2023/10/30 10:02:00;;;;;;;11.05;2.95;;;12.90;99.90;;;;;;5032700;28;20049;-80
2023/10/30 10:04:46;;;;;;;10.73;2.70;;;12.90;99.90;;;;;;5048956;28;20061;-80
2023/10/30 10:07:34;;;;;;;9.40;2.25;;;13.00;99.90;;;;;;5051639;28;20056;-80
2023/10/30 10:10:20;;;;;;;7.35;2.00;;;13.00;99.90;;;;;;5051482;28;20094;-80
2023/10/30 10:13:06;;;;;;;7.72;1.98;;;13.10;99.90;;;;;;5050897;28;20147;-80
2023/10/30 10:15:52;;;;;;;13.88;3.85;;;13.20;99.90;;;;;;5051157;28;20060;-80
2023/10/30 10:18:38;;;;;;;11.50;2.47;;;13.40;99.90;;;;;;5019457;28;20518;-80
2023/10/30 10:21:25;;;;;;;12.23;3.08;;;13.50;99.90;;;;;;5019586;28;20535;-80
2023/10/30 10:24:10;;;;;;;10.27;3.55;;;13.60;99.90;;;;;;5036014;28;20401;-80
2023/10/30 10:27:02;;;;;;;14.45;2.95;;;13.60;99.90;;;;;;5036625;28;20052;-82
2023/10/30 10:29:55;;;;;;;14.07;2.70;;;13.50;99.90;;;;;;5049909;28;20057;-80
2023/10/30 10:32:42;;;;;;;17.42;3.15;;;13.60;99.90;;;;;;5048927;28;20814;-81
2023/10/30 10:35:30;;;;;;;15.63;3.20;;;13.80;99.90;;;;;;5035106;28;20060;-80
2023/10/30 10:38:18;;;;;;;13.63;2.58;;;14.10;99.90;;;;;;5051123;28;20703;-83
2023/10/30 10:41:05;;;;;;;17.90;3.78;;;14.30;99.90;;;;;;5050468;28;20512;-82
2023/10/30 10:43:52;;;;;;;16.52;2.67;;;14.10;99.90;;;;;;5050642;28;20049;-82
2023/10/30 10:46:38;;;;;;;12.38;3.40;;;14.00;99.90;;;;;;5036214;28;20506;-81
2023/10/30 10:49:25;;;;;;;16.10;2.95;;;13.90;99.90;;;;;;5051005;28;20048;-84
2023/10/30 10:52:13;;;;;;;14.88;2.65;;;13.80;99.90;;;;;;5050341;28;20045;-84
2023/10/30 10:55:05;;;;;;;13.80;2.45;;;13.80;99.90;;;;;;5049820;28;20049;-81
2023/10/30 10:58:04;;;;;;;17.52;3.13;;;13.70;99.90;;;;;;5050465;28;20049;-80
2023/10/30 11:00:52;;;;;;;17.38;3.13;;;13.70;99.90;;;;;;5050394;28;20055;-81
2023/10/30 11:03:38;;;;;;;12.18;2.40;;;13.70;99.90;;;;;;5049722;28;20056;-79
2023/10/30 11:06:33;;;;;;;12.75;2.70;;;13.70;99.90;;;;;;5050488;28;20084;-81
2023/10/30 11:09:22;;;;;;;;;;;13.80;99.90;;;;;;5036551;28;20052;-81
2023/10/30 11:12:39;;;;;;;13.65;2.58;;;14.20;99.90;;;;;;5048214;28;20376;-81
2023/10/30 11:15:35;;;;;;;15.65;2.50;;;14.80;99.90;;;;;;5040603;28;20099;-81
2023/10/30 11:18:24;;;;;;;13.70;2.70;;;15.90;99.90;;;;;;5050258;28;20084;-82
2023/10/30 11:21:16;;;;;;;12.93;2.28;;;16.80;99.90;;;;;;5050156;28;20139;-81
2023/10/30 11:24:03;;;;;;;10.73;2.20;;;17.60;99.90;;;;;;5049482;28;20561;-81
2023/10/30 11:26:49;;;;;;;10.40;2.10;;;18.00;99.90;;;;;;5050108;28;20075;-82
2023/10/30 11:29:55;;;;;;;8.98;2.00;;;18.20;99.90;;;;;;5049066;28;20503;-81
2023/10/30 11:32:44;;;;;;;15.05;3.08;;;18.50;99.90;;;;;;5050278;28;20052;-80
2023/10/30 11:35:33;;;;;;;9.43;2.42;;;19.10;99.90;;;;;;5050242;28;20060;-81
2023/10/30 11:38:20;;;;;;;11.27;2.30;;;19.80;99.90;;;;;;5050249;28;20049;-80
2023/10/30 11:41:09;;;;;;;13.80;2.10;;;20.20;99.90;;;;;;5047686;28;20049;-82
2023/10/30 11:44:11;;;;;;;14.40;2.03;;;20.80;99.90;;;;;;5049958;28;20060;-81
2023/10/30 11:46:58;;;;;;;12.10;2.95;;;20.80;99.90;;;;;;5050136;28;20107;-83
2023/10/30 11:49:45;;;;;;;11.45;2.13;;;21.00;99.90;;;;;;5050786;28;20493;-82
2023/10/30 11:52:32;;;;;;;13.40;2.47;;;20.90;99.90;;;;;;5053326;28;20057;-81
2023/10/30 11:55:21;;;;;;;10.35;2.15;;;21.30;99.90;;;;;;5053856;28;20048;-81
2023/10/30 11:58:11;;;;;;;7.65;1.88;;;20.80;99.90;;;;;;5053959;28;20680;-81
2023/10/30 12:00:58;;;;;;;11.60;2.17;;;20.70;99.90;;;;;;5035544;28;20055;-81
2023/10/30 12:03:44;;;;;;;7.95;2.13;;;20.60;99.90;;;;;;5053700;28;20505;-81
2023/10/30 12:06:30;;;;;;;8.57;1.83;;;21.00;99.90;;;;;;5053536;28;20067;-81
2023/10/30 12:09:17;;;;;;;8.82;2.58;;;20.90;99.30;;;;;;5051213;28;20045;-82
2023/10/30 12:12:03;;;;;;;12.18;2.35;;;21.30;99.30;;;;;;5035212;28;20057;-80
2023/10/30 12:14:49;;;;;;;10.68;2.50;;;21.60;98.70;;;;;;5052985;28;20076;-81
2023/10/30 12:17:36;;;;;;;11.43;2.90;;;21.10;98.80;;;;;;5053582;28;20063;-82
2023/10/30 12:20:23;;;;;;;12.05;1.98;;;20.80;99.00;;;;;;5054394;28;20048;-83
2023/10/30 12:23:09;;;;;;;9.27;2.30;;;20.40;99.70;;;;;;5052710;28;20056;-83
2023/10/30 12:26:06;;;;;;;11.02;2.05;;;21.00;99.50;;;;;;5038310;28;20578;-83
2023/10/30 12:28:57;;;;;;;10.30;2.63;;;21.00;98.60;;;;;;5052919;28;20378;-80
2023/10/30 12:31:43;;;;;;;8.15;2.30;;;20.80;98.50;;;;;;5053586;28;20400;-83
2023/10/30 12:34:30;;;;;;;10.32;2.33;;;21.10;98.80;;;;;;5022140;28;20053;-81
2023/10/30 12:37:17;;;;;;;11.40;2.03;;;21.00;98.10;;;;;;5053105;28;20102;-82
2023/10/30 12:40:05;;;;;;;14.60;2.60;;;20.70;98.70;;;;;;5035302;28;20060;-81
2023/10/30 12:42:53;;;;;;;15.77;2.33;;;20.10;99.50;;;;;;5034612;28;20049;-83
2023/10/30 12:45:39;;;;;;;14.13;2.10;;;19.70;99.80;;;;;;5053010;28;20052;-82
2023/10/30 12:48:25;;;;;;;10.68;1.80;;;19.20;99.90;;;;;;5034924;28;20052;-83
2023/10/30 12:51:11;;;;;;;11.00;2.63;;;18.90;99.90;;;;;;5052291;28;20045;-82
2023/10/30 12:53:58;;;;;;;11.30;2.08;;;18.60;99.90;;;;;;5044279;28;20049;-82
2023/10/30 12:56:44;;;;;;;11.75;2.30;;;18.30;99.90;;;;;;5050811;28;20578;-82
2023/10/30 12:59:30;;;;;;;11.90;2.10;;;17.90;99.90;;;;;;5052297;28;20045;-81
2023/10/30 13:02:16;;;;;;;9.10;2.10;;;17.40;99.90;;;;;;5051999;28;20103;-82
2023/10/30 13:05:03;;;;;;;10.55;1.73;;;16.90;99.90;;;;;;5034709;28;20467;-82
2023/10/30 13:07:49;;;;;;;11.00;3.08;;;16.60;99.90;;;;;;5052771;28;20053;-82
2023/10/30 13:10:35;;;;;;;12.65;2.47;;;16.30;99.90;;;;;;5052645;28;20053;-83
2023/10/30 13:13:22;;;;;;;13.27;3.03;;;15.90;99.90;;;;;;5034631;28;20451;-81
2023/10/30 13:16:09;;;;;;;11.40;2.08;;;15.60;99.90;;;;;;5034528;28;20061;-82
2023/10/30 13:18:55;;;;;;;11.27;2.58;;;15.20;99.90;;;;;;5051269;28;20053;-81
2023/10/30 13:21:41;;;;;;;14.27;2.50;;;15.00;99.90;;;;;;5052994;28;20048;-83
2023/10/30 13:24:27;;;;;;;10.57;2.70;;;14.90;99.90;;;;;;5034739;28;20056;-83
2023/10/30 13:27:13;;;;;;;20.80;2.97;;;14.80;99.90;;;;;;5052223;28;20083;-82
2023/10/30 13:29:59;;;;;;;14.82;2.58;;;14.80;99.90;;;;;;5051761;28;20107;-82
2023/10/30 13:32:45;;;;;;;17.63;2.67;;;14.70;99.90;;;;;;5051648;28;20056;-83
2023/10/30 13:35:31;;;;;;;10.63;2.85;;;14.60;99.90;;;;;;5051936;28;20052;-82
2023/10/30 13:38:17;;;;;;;12.20;2.85;;;14.50;99.90;;;;;;5049518;28;20053;-82
2023/10/30 13:41:03;;;;;;;17.10;3.25;;;14.40;99.90;;;;;;5033982;28;20148;-82
2023/10/30 13:43:51;;;;;;;18.50;3.15;;;14.40;99.90;;;;;;5033944;28;20069;-83
2023/10/30 13:46:37;;;;;;;13.63;2.30;;;14.40;99.90;;;;;;5050640;28;20140;-80
2023/10/30 13:49:22;;;;;;;12.43;2.13;;;14.40;99.90;;;;;;5052003;28;20048;-81
2023/10/30 13:52:08;;;;;;;14.15;3.08;;;14.40;99.90;;;;;;5051299;28;20053;-80
2023/10/30 13:54:54;;;;;;;13.15;2.20;;;14.20;99.90;;;;;;5051454;28;20095;-82
2023/10/30 13:57:41;;;;;;;13.20;2.95;;;14.20;99.90;;;;;;5051505;28;20564;-82
2023/10/30 14:00:30;;;;;;;13.70;2.33;;;14.10;99.90;;;;;;5050281;28;20489;-82
2023/10/30 14:03:16;;;;;;;10.88;1.90;;;14.10;99.90;;;;;;5051594;28;20045;-83
2023/10/30 14:06:02;;;;;;;14.48;2.40;;;14.00;99.90;;;;;;5049894;28;20578;-83
2023/10/30 14:08:48;;;;;;;14.30;2.58;;;14.00;99.90;;;;;;5051367;28;20053;-81
2023/10/30 14:11:35;;;;;;;11.15;2.17;;;13.90;99.90;;;;;;5033625;28;20455;-83
2023/10/30 14:14:21;;;;;;;9.32;2.10;;;13.90;99.90;;;;;;5049874;28;20102;-83
2023/10/30 14:17:07;;;;;;;10.82;2.60;;;13.90;99.90;;;;;;5050949;28;20413;-83
2023/10/30 14:19:53;;;;;;;12.35;2.75;;;13.80;99.90;;;;;;5050787;28;20103;-82
2023/10/30 14:22:39;;;;;;;19.83;2.92;;;13.80;99.90;;;;;;5051016;28;20061;-83